Leverburgh, United Kingdom
Current Conditions -  °F | °C
As of 9:50 PM on Saturday 25 Oct 2014 (Local Time) from EGPL Reporting Station
Clear Clear  
Wind Chill: 52°   Ceiling: Unl
Heat Index: 52°   Visibility: 5mi
Dew Point: 45°   Wind: 37mph
Humidity: 76%   Direction: 230°SW
Pressure: 29.38"   Gusts: NA
Location:  57.77°N, 7.01°W
Report Text: EGPL 252050Z AUTO 23032KT 8000 NCD 11/07 Q0995
Loading
Personal Weather Stations






























Interactive Weather Map
Tropical Storm Tracking
New forecast layout! Learn more

10-Day Weather Forecast

Advertisements
Track Severe Weather on mobile